createdAt,value
2023-01-04T00:04:00.478Z,9.10
2023-01-04T00:09:02.516Z,9.10
2023-01-04T00:14:04.309Z,9.10
2023-01-04T00:19:06.295Z,9.10
2023-01-04T00:24:09.535Z,9.20
2023-01-04T00:29:13.297Z,9.20
2023-01-04T00:34:16.647Z,9.30
2023-01-04T00:39:18.780Z,9.30
2023-01-04T00:44:23.368Z,9.30
2023-01-04T00:49:25.858Z,9.20
2023-01-04T00:54:28.408Z,9.40
2023-01-04T00:59:30.231Z,9.40
2023-01-04T01:04:32.114Z,9.40
2023-01-04T01:09:34.169Z,9.40
2023-01-04T01:14:35.978Z,9.40
2023-01-04T01:19:37.863Z,9.30
2023-01-04T01:24:39.955Z,9.30
2023-01-04T01:29:41.754Z,9.30
2023-01-04T01:34:43.610Z,9.30
2023-01-04T01:39:45.452Z,9.30
2023-01-04T01:44:58.716Z,9.40
2023-01-04T01:50:01.329Z,9.40
2023-01-04T01:55:08.339Z,9.40
2023-01-04T02:00:15.509Z,9.50
2023-01-04T02:05:19.556Z,9.50
2023-01-04T02:10:21.590Z,9.50
2023-01-04T02:15:29.251Z,9.50
2023-01-04T02:21:01.767Z,9.50
2023-01-04T02:26:25.078Z,9.60
2023-01-04T02:31:45.834Z,9.60
2023-01-04T02:37:35.650Z,9.70
2023-01-04T02:43:03.509Z,9.70
2023-01-04T02:48:26.211Z,9.70
2023-01-04T02:53:34.364Z,9.70
2023-01-04T02:58:54.224Z,9.80
2023-01-04T03:04:28.191Z,9.80
2023-01-04T03:09:35.552Z,9.90
2023-01-04T03:14:45.681Z,9.90
2023-01-04T03:19:57.034Z,10.00
2023-01-04T03:25:19.411Z,10.00
2023-01-04T03:30:43.067Z,10.00
2023-01-04T03:35:59.202Z,10.10
2023-01-04T03:41:31.782Z,10.20
2023-01-04T03:47:08.788Z,10.20
2023-01-04T03:52:13.587Z,10.20
2023-01-04T03:57:16.913Z,10.30
2023-01-04T04:02:25.221Z,10.30
2023-01-04T04:07:45.707Z,10.30
2023-01-04T04:12:48.924Z,10.40
2023-01-04T04:17:50.857Z,10.40
2023-01-04T04:22:53.640Z,10.50
2023-01-04T04:27:55.508Z,10.60
2023-01-04T04:32:57.275Z,10.60
2023-01-04T04:37:59.352Z,10.60
2023-01-04T04:43:01.219Z,10.70
2023-01-04T04:48:03.044Z,10.70
2023-01-04T04:53:04.830Z,10.70
2023-01-04T04:58:06.609Z,10.80
2023-01-04T05:03:08.576Z,10.90
2023-01-04T05:08:10.573Z,10.70
2023-01-04T05:13:13.309Z,10.90
2023-01-04T05:18:18.119Z,10.90
2023-01-04T05:23:21.167Z,11.00
2023-01-04T05:28:23.352Z,10.90
2023-01-04T05:33:28.658Z,11.00
2023-01-04T05:38:31.081Z,11.00
2023-01-04T05:43:32.851Z,11.10
2023-01-04T05:48:34.709Z,11.10
2023-01-04T05:53:36.468Z,11.00
2023-01-04T05:58:38.385Z,11.00
2023-01-04T06:03:40.273Z,11.00
2023-01-04T06:08:42.225Z,11.00
2023-01-04T06:13:44.064Z,11.10
2023-01-04T06:18:45.813Z,11.20
2023-01-04T06:23:47.669Z,11.20
2023-01-04T06:28:49.439Z,11.30
2023-01-04T06:33:51.294Z,11.20
2023-01-04T06:38:53.576Z,11.10
2023-01-04T06:43:55.364Z,11.10
2023-01-04T06:48:58.249Z,11.10
2023-01-04T06:54:00.145Z,11.10
2023-01-04T06:59:01.913Z,11.10
2023-01-04T07:04:04.159Z,11.20
2023-01-04T07:09:06.018Z,11.20
2023-01-04T07:14:07.780Z,11.20
2023-01-04T07:19:09.704Z,11.20
2023-01-04T07:24:11.634Z,11.20
2023-01-04T07:29:17.283Z,11.30
2023-01-04T07:34:21.757Z,11.40
2023-01-04T07:39:23.673Z,11.50
2023-01-04T07:44:27.840Z,11.50
2023-01-04T07:49:29.768Z,11.50
2023-01-04T07:54:31.532Z,11.60
2023-01-04T07:59:33.362Z,11.70
2023-01-04T08:04:35.662Z,11.70
2023-01-04T08:09:37.510Z,11.70
2023-01-04T08:14:39.277Z,11.70
2023-01-04T08:19:41.136Z,11.70
2023-01-04T08:24:42.931Z,11.70
2023-01-04T08:29:44.766Z,11.70
2023-01-04T08:34:46.535Z,11.70
2023-01-04T08:39:49.751Z,11.60
2023-01-04T08:44:57.083Z,11.60
2023-01-04T08:50:08.217Z,11.60
2023-01-04T08:55:14.026Z,11.60
2023-01-04T09:00:19.164Z,11.60
2023-01-04T09:05:22.333Z,11.70
2023-01-04T09:10:25.025Z,11.70
2023-01-04T09:15:26.803Z,11.80
2023-01-04T09:20:28.882Z,11.90
2023-01-04T09:25:30.744Z,11.80
2023-01-04T09:30:35.667Z,12.00
2023-01-04T09:35:37.424Z,12.00
2023-01-04T09:41:03.627Z,12.10
2023-01-04T09:46:10.309Z,12.20
2023-01-04T09:51:16.676Z,12.20
2023-01-04T09:56:26.753Z,12.30
2023-01-04T10:01:44.798Z,12.30
2023-01-04T10:06:47.041Z,12.30
2023-01-04T10:12:09.407Z,12.30
2023-01-04T10:17:35.644Z,12.30
2023-01-04T10:23:29.637Z,12.20
2023-01-04T10:28:40.254Z,12.20
2023-01-04T10:34:06.337Z,12.10
2023-01-04T10:39:25.648Z,12.10
2023-01-04T10:44:49.094Z,12.00
2023-01-04T10:49:55.865Z,12.00
2023-01-04T10:55:10.919Z,12.00
2023-01-04T11:00:33.776Z,11.90
2023-01-04T11:05:35.547Z,11.90
2023-01-04T11:10:44.683Z,11.90
2023-01-04T11:15:47.877Z,11.90
2023-01-04T11:20:49.668Z,12.00
2023-01-04T11:25:58.751Z,12.00
2023-01-04T11:31:12.486Z,12.10
2023-01-04T11:36:31.821Z,12.10
2023-01-04T11:41:33.914Z,12.10
2023-01-04T11:46:35.677Z,12.10
2023-01-04T11:51:39.676Z,12.10
2023-01-04T11:57:11.070Z,12.10
2023-01-04T12:07:47.478Z,12.10
2023-01-04T12:12:49.413Z,12.10
2023-01-04T12:18:03.030Z,12.10
2023-01-04T12:23:05.189Z,12.10
2023-01-04T12:28:07.374Z,12.10
2023-01-04T12:33:34.144Z,12.20
2023-01-04T12:38:54.704Z,12.30
2023-01-04T12:43:56.486Z,12.30
2023-01-04T12:49:03.927Z,12.30
2023-01-04T12:54:21.937Z,12.30
2023-01-04T12:59:40.131Z,12.40
2023-01-04T13:04:42.509Z,12.40
2023-01-04T13:09:52.189Z,12.40
2023-01-04T13:15:14.470Z,12.40
2023-01-04T13:20:23.075Z,12.40
2023-01-04T13:25:25.964Z,12.40
2023-01-04T13:30:39.128Z,12.50
2023-01-04T13:35:40.870Z,12.50
2023-01-04T13:40:49.326Z,12.70
2023-01-04T13:46:15.830Z,12.80
2023-01-04T13:51:25.459Z,12.90
2023-01-04T13:56:32.073Z,13.00
2023-01-04T14:01:43.696Z,13.00
2023-01-04T14:06:48.455Z,13.00
2023-01-04T14:17:36.003Z,12.90
2023-01-04T14:22:41.439Z,12.90
2023-01-04T14:27:43.213Z,12.90
2023-01-04T14:32:58.708Z,12.90
2023-01-04T14:38:10.533Z,12.80
2023-01-04T14:43:43.517Z,12.70
2023-01-04T14:48:45.314Z,12.60
2023-01-04T14:53:47.417Z,12.60
2023-01-04T14:58:49.195Z,12.60
2023-01-04T15:03:51.000Z,12.60
2023-01-04T15:08:53.007Z,12.70
2023-01-04T15:13:54.835Z,12.70
2023-01-04T15:18:56.637Z,12.90
2023-01-04T15:23:58.514Z,13.00
2023-01-04T15:29:00.330Z,13.00
2023-01-04T15:34:02.114Z,13.10
2023-01-04T15:39:04.429Z,13.20
2023-01-04T15:44:09.808Z,13.10
2023-01-04T15:49:16.916Z,13.10
2023-01-04T15:54:21.854Z,13.10
2023-01-04T15:59:23.969Z,13.10
2023-01-04T16:04:26.879Z,13.00
2023-01-04T16:09:28.770Z,12.90
2023-01-04T16:14:30.669Z,12.80
2023-01-04T16:19:34.150Z,12.90
2023-01-04T16:29:57.935Z,12.80
2023-01-04T16:34:59.722Z,12.70
2023-01-04T16:40:09.539Z,12.60
2023-01-04T16:45:12.134Z,12.60
2023-01-04T16:50:14.167Z,12.60
2023-01-04T16:55:21.849Z,12.70
2023-01-04T17:00:25.525Z,12.70
2023-01-04T17:05:27.328Z,12.80
2023-01-04T17:10:29.855Z,12.60
2023-01-04T17:15:43.113Z,12.70
2023-01-04T17:21:11.070Z,12.70
2023-01-04T17:26:23.259Z,12.60
2023-01-04T17:31:33.912Z,12.60
2023-01-04T17:36:36.866Z,12.50
2023-01-04T17:41:39.751Z,12.50
2023-01-04T17:46:41.976Z,12.40
2023-01-04T17:51:43.767Z,12.40
2023-01-04T17:56:45.561Z,12.40
2023-01-04T18:01:47.583Z,12.50
2023-01-04T18:06:49.593Z,12.50
2023-01-04T18:11:51.796Z,12.50
2023-01-04T18:16:57.452Z,12.60
2023-01-04T18:22:00.027Z,12.60
2023-01-04T18:27:21.057Z,12.50
2023-01-04T18:32:25.332Z,12.50
2023-01-04T18:37:27.146Z,12.50
2023-01-04T18:42:31.109Z,12.50
2023-01-04T18:47:33.061Z,12.50
2023-01-04T18:52:35.672Z,12.40
2023-01-04T18:57:38.515Z,12.30
2023-01-04T19:02:40.681Z,12.40
2023-01-04T19:07:42.833Z,12.30
2023-01-04T19:12:44.657Z,12.30
2023-01-04T19:17:46.572Z,12.40
2023-01-04T19:22:48.393Z,12.40
2023-01-04T19:27:50.314Z,12.30
2023-01-04T19:32:52.199Z,12.30
2023-01-04T19:37:54.287Z,12.30
2023-01-04T19:42:56.293Z,12.20
2023-01-04T19:47:58.153Z,12.20
2023-01-04T19:53:00.982Z,12.30
2023-01-04T19:58:05.218Z,12.30
2023-01-04T20:03:07.127Z,12.40
2023-01-04T20:08:09.153Z,12.40
2023-01-04T20:13:11.007Z,12.40
2023-01-04T20:18:14.368Z,12.40
2023-01-04T20:23:16.913Z,12.40
2023-01-04T20:28:21.111Z,12.40
2023-01-04T20:33:22.942Z,12.30
2023-01-04T20:38:26.767Z,12.30
2023-01-04T20:43:34.939Z,12.30
2023-01-04T20:48:36.925Z,12.30
2023-01-04T20:53:39.111Z,12.30
2023-01-04T20:58:41.026Z,12.40
2023-01-04T21:03:43.369Z,12.40
2023-01-04T21:08:45.953Z,12.30
2023-01-04T21:13:49.629Z,12.30
2023-01-04T21:18:51.391Z,12.30
2023-01-04T21:23:57.726Z,12.30
2023-01-04T21:28:59.963Z,12.20
2023-01-04T21:34:02.962Z,12.10
2023-01-04T21:39:07.625Z,12.10
2023-01-04T21:44:09.508Z,12.00
2023-01-04T21:49:11.960Z,12.00
2023-01-04T21:54:13.880Z,12.00
2023-01-04T21:59:16.505Z,11.90
2023-01-04T22:04:18.294Z,11.80
2023-01-04T22:09:20.115Z,11.80
2023-01-04T22:14:21.952Z,11.80
2023-01-04T22:19:23.767Z,11.70
2023-01-04T22:24:25.904Z,11.70
2023-01-04T22:29:27.870Z,11.60
2023-01-04T22:34:29.770Z,11.60
2023-01-04T22:39:31.573Z,11.60
2023-01-04T22:44:33.434Z,11.60
2023-01-04T22:49:35.213Z,11.50
2023-01-04T22:54:37.173Z,11.40
2023-01-04T22:59:39.218Z,11.40
2023-01-04T23:04:41.265Z,11.40
2023-01-04T23:09:43.503Z,11.40
2023-01-04T23:14:45.419Z,11.30
2023-01-04T23:19:47.187Z,11.30
2023-01-04T23:24:49.332Z,11.30
2023-01-04T23:29:51.283Z,11.40
2023-01-04T23:34:53.111Z,11.30
2023-01-04T23:39:54.886Z,11.40
2023-01-04T23:44:56.689Z,11.40
2023-01-04T23:49:58.558Z,11.30
2023-01-04T23:55:00.340Z,11.40
